Time;durP1;ratioP1;P1;durP2;ratioP2;P2;SDS_P1;SDS_P2;PMS_P1;PMS_P2;Temp;Humidity;BMP_temperature;BMP_pressure;BME280_temperature;BME280_humidity;BME280_pressure;Samples;Min_cycle;Max_cycle;Signal;HPM_P1;HPM_P2
2022/01/19 00:00:48;;;;;;;85.70;21.42;;;4.40;99.90;;;;;;5028623;28;20072;-78
2022/01/19 00:03:14;;;;;;;44.47;21.02;;;4.40;99.90;;;;;;5017930;28;20022;-78
2022/01/19 00:05:40;;;;;;;78.22;21.52;;;4.40;99.90;;;;;;5014180;28;20021;-78
2022/01/19 00:08:06;;;;;;;55.80;21.15;;;4.30;99.90;;;;;;5013774;28;20022;-78
2022/01/19 00:10:32;;;;;;;61.45;20.83;;;4.30;99.90;;;;;;5013638;28;20506;-78
2022/01/19 00:12:59;;;;;;;47.10;19.95;;;4.30;99.90;;;;;;5025920;28;20033;-79
2022/01/19 00:15:26;;;;;;;46.03;21.95;;;4.30;99.90;;;;;;5033686;28;20463;-78
2022/01/19 00:17:55;;;;;;;56.95;21.63;;;4.40;99.90;;;;;;5030227;28;20033;-78
2022/01/19 00:20:22;;;;;;;70.38;22.05;;;4.30;99.90;;;;;;5013479;28;20034;-79
2022/01/19 00:22:48;;;;;;;55.40;20.77;;;4.30;99.90;;;;;;5014363;28;20128;-78
2022/01/19 03:58:10;;;;;;;60.70;24.48;;;3.90;99.90;;;;;;1713641;28;21961;-75
2022/01/19 04:00:41;;;;;;;55.83;25.42;;;3.90;99.90;;;;;;5007282;28;20080;-77
2022/01/19 04:03:07;;;;;;;59.55;25.13;;;3.90;99.90;;;;;;5013752;28;20456;-77
2022/01/19 04:05:44;;;;;;;68.22;27.10;;;4.00;99.90;;;;;;5013699;28;20018;-78
2022/01/19 04:08:10;;;;;;;67.75;25.77;;;4.00;99.90;;;;;;5013279;28;20030;-77
2022/01/19 04:10:36;;;;;;;62.25;28.25;;;4.00;99.90;;;;;;5010960;28;20030;-78
2022/01/19 04:13:24;;;;;;;58.42;25.48;;;4.10;99.90;;;;;;4994981;28;20101;-77
2022/01/19 04:15:51;;;;;;;67.35;26.85;;;4.10;99.90;;;;;;4993871;28;20030;-78
2022/01/19 04:18:18;;;;;;;62.72;26.10;;;4.10;99.90;;;;;;4993376;28;20026;-78
2022/01/19 04:20:47;;;;;;;67.85;26.73;;;4.20;99.90;;;;;;5006351;28;20100;-78
2022/01/19 04:23:13;;;;;;;65.60;26.55;;;4.10;99.90;;;;;;4994186;28;20334;-77
2022/01/19 04:25:38;;;;;;;65.95;27.45;;;4.20;99.90;;;;;;4994281;28;20049;-77
2022/01/19 04:28:07;;;;;;;69.82;27.70;;;4.20;99.90;;;;;;4993839;28;20520;-78
2022/01/19 04:30:34;;;;;;;70.72;26.10;;;4.20;99.90;;;;;;5007280;28;20116;-77
2022/01/19 04:33:33;;;;;;;66.57;28.20;;;4.30;99.90;;;;;;5013325;28;20468;-77
2022/01/19 04:35:54;;;;;;;72.22;27.58;;;4.30;99.90;;;;;;5009583;28;20049;-77
2022/01/19 05:05:14;;;;;;;70.20;27.45;;;4.50;99.90;;;;;;5014588;28;20095;-77
2022/01/19 05:07:51;;;;;;;75.32;29.60;;;4.60;99.90;;;;;;5033404;28;20025;-77
2022/01/19 05:15:46;;;;;;;75.67;28.87;;;4.60;99.90;;;;;;5025346;28;20088;-77
2022/01/19 05:18:12;;;;;;;77.05;29.67;;;4.60;99.90;;;;;;5013335;28;20279;-78
2022/01/19 05:20:38;;;;;;;70.97;29.38;;;4.60;99.90;;;;;;5012511;28;20030;-77
2022/01/19 05:23:04;;;;;;;79.10;31.10;;;4.60;99.90;;;;;;5012570;28;20084;-77
2022/01/19 05:25:30;;;;;;;84.40;32.70;;;4.70;99.90;;;;;;5014176;28;20506;-78
2022/01/19 05:27:55;;;;;;;80.50;31.55;;;4.70;99.90;;;;;;5012268;28;20026;-77
2022/01/19 05:30:21;;;;;;;84.82;31.58;;;4.70;99.90;;;;;;5012473;28;20033;-78
2022/01/19 05:32:47;;;;;;;81.03;32.35;;;4.70;99.90;;;;;;5012247;28;20101;-78
2022/01/19 05:35:13;;;;;;;88.30;33.17;;;4.70;99.90;;;;;;5012501;28;20022;-78
2022/01/19 05:37:39;;;;;;;95.15;33.10;;;4.70;99.90;;;;;;5013098;28;20475;-78
2022/01/19 05:40:06;;;;;;;82.97;33.55;;;4.70;99.90;;;;;;5017765;28;20061;-76
2022/01/19 05:42:33;;;;;;;89.85;33.58;;;4.80;99.90;;;;;;5011370;28;20033;-76
2022/01/19 05:44:59;;;;;;;92.22;34.17;;;4.80;99.90;;;;;;5012871;28;20030;-76
2022/01/19 05:47:24;;;;;;;93.97;33.15;;;4.80;99.90;;;;;;5031125;28;20018;-77
2022/01/19 05:49:50;;;;;;;103.65;34.92;;;4.80;99.90;;;;;;5030392;28;20552;-77
2022/01/19 05:52:16;;;;;;;99.68;34.38;;;4.80;99.90;;;;;;5031345;28;20032;-77
2022/01/19 05:54:42;;;;;;;95.53;34.83;;;4.80;99.90;;;;;;5019248;28;20310;-76
2022/01/19 05:57:07;;;;;;;104.13;36.47;;;4.80;99.90;;;;;;5032681;28;20028;-76
2022/01/19 05:59:34;;;;;;;98.72;35.83;;;4.80;99.90;;;;;;5043422;28;20048;-76
2022/01/19 06:01:59;;;;;;;106.10;36.08;;;4.80;99.90;;;;;;5034151;28;20041;-76
2022/01/19 06:04:25;;;;;;;99.60;34.38;;;4.80;99.90;;;;;;5034532;28;20021;-77
2022/01/19 06:06:53;;;;;;;98.88;35.10;;;4.90;99.90;;;;;;5002643;28;20018;-77
2022/01/19 06:09:33;;;;;;;96.15;34.97;;;4.90;99.90;;;;;;5029133;28;20037;-77
2022/01/19 06:12:04;;;;;;;98.90;35.28;;;4.90;99.90;;;;;;5034898;28;20120;-77
2022/01/19 06:14:29;;;;;;;104.20;35.80;;;4.90;99.90;;;;;;5030670;28;20109;-77
2022/01/19 06:16:55;;;;;;;104.72;36.10;;;4.90;99.90;;;;;;5032014;28;20125;-77
2022/01/19 06:19:20;;;;;;;101.15;35.85;;;4.90;99.90;;;;;;5023885;28;20396;-77
2022/01/19 06:21:46;;;;;;;106.90;36.70;;;4.90;99.90;;;;;;5014317;28;20034;-77
2022/01/19 06:24:12;;;;;;;100.25;36.25;;;4.90;99.90;;;;;;5014951;28;20028;-77
2022/01/19 06:26:38;;;;;;;108.18;36.70;;;4.90;99.90;;;;;;5014538;28;20471;-77
2022/01/19 06:29:04;;;;;;;100.68;37.03;;;4.90;99.90;;;;;;5014690;28;20455;-77
2022/01/19 06:31:30;;;;;;;106.30;38.60;;;5.00;99.90;;;;;;5023559;28;20075;-77
2022/01/19 06:33:56;;;;;;;111.55;39.45;;;5.00;99.90;;;;;;5014900;28;20038;-77
2022/01/19 06:36:22;;;;;;;102.28;38.33;;;5.00;99.90;;;;;;5029743;28;20241;-77
2022/01/19 06:38:48;;;;;;;103.65;37.55;;;5.00;99.90;;;;;;4997379;28;20034;-77
2022/01/19 06:41:13;;;;;;;104.38;38.58;;;5.00;99.90;;;;;;5029996;28;20030;-77
2022/01/19 06:43:39;;;;;;;105.35;39.20;;;5.00;99.90;;;;;;5031026;28;20105;-76
2022/01/19 06:46:04;;;;;;;103.20;38.70;;;5.00;99.90;;;;;;5031825;28;20034;-77
2022/01/19 06:48:30;;;;;;;111.47;40.13;;;5.00;99.90;;;;;;5039110;28;20538;-76
2022/01/19 06:50:56;;;;;;;112.15;40.95;;;5.10;99.90;;;;;;5042534;28;20108;-77
2022/01/19 06:53:22;;;;;;;118.00;43.08;;;5.10;99.90;;;;;;5037358;28;20395;-77
2022/01/19 06:55:47;;;;;;;109.07;42.92;;;5.10;99.90;;;;;;5030460;28;20018;-77
2022/01/19 06:58:13;;;;;;;116.85;44.03;;;5.10;99.90;;;;;;5044761;28;20049;-77
2022/01/19 07:00:39;;;;;;;123.72;44.72;;;5.10;99.90;;;;;;5047502;28;20033;-77
2022/01/19 07:03:05;;;;;;;123.85;44.05;;;5.10;99.90;;;;;;5040956;28;20056;-77
2022/01/19 07:05:30;;;;;;;118.65;44.58;;;5.10;99.90;;;;;;5049187;28;20361;-77
2022/01/19 07:07:57;;;;;;;121.32;46.13;;;5.10;99.90;;;;;;5038196;28;20021;-77
2022/01/19 07:10:24;;;;;;;128.82;45.78;;;5.20;99.90;;;;;;5023663;28;20052;-77
2022/01/19 07:12:50;;;;;;;123.32;45.30;;;5.20;99.90;;;;;;5039288;28;20033;-77
2022/01/19 07:15:16;;;;;;;132.52;48.22;;;5.20;99.90;;;;;;5047472;28;20363;-77
2022/01/19 07:17:42;;;;;;;121.97;46.33;;;5.20;99.90;;;;;;5041547;28;20022;-77
2022/01/19 07:20:08;;;;;;;126.13;46.70;;;5.20;99.90;;;;;;5034806;28;20652;-76
2022/01/19 07:22:34;;;;;;;121.43;46.83;;;5.20;99.90;;;;;;5036476;28;20442;-76
2022/01/19 07:25:00;;;;;;;120.88;46.22;;;5.20;99.90;;;;;;5032806;28;20036;-76
2022/01/19 07:27:27;;;;;;;126.72;48.58;;;5.20;99.90;;;;;;5042573;28;20055;-77
2022/01/19 07:29:52;;;;;;;126.22;47.63;;;5.30;99.90;;;;;;5035938;28;20445;-76
2022/01/19 07:32:19;;;;;;;132.45;49.15;;;5.30;99.90;;;;;;5014445;28;20029;-76
2022/01/19 07:34:45;;;;;;;118.72;48.30;;;5.30;99.90;;;;;;5037879;28;20029;-76
2022/01/19 07:37:11;;;;;;;122.30;49.30;;;5.30;99.90;;;;;;5040962;28;20032;-77
2022/01/19 07:39:37;;;;;;;120.97;48.92;;;5.30;99.90;;;;;;5042992;28;20035;-77
2022/01/19 07:42:03;;;;;;;124.05;47.83;;;5.30;99.90;;;;;;5037077;28;20040;-76
2022/01/19 07:44:29;;;;;;;118.80;46.95;;;5.30;99.90;;;;;;5039744;28;20021;-77
2022/01/19 07:46:56;;;;;;;122.13;48.10;;;5.30;99.90;;;;;;5030873;28;20030;-77
2022/01/19 07:49:22;;;;;;;120.90;48.38;;;5.40;99.90;;;;;;5024187;28;20028;-76
2022/01/19 07:51:48;;;;;;;119.47;46.50;;;5.40;99.90;;;;;;5041107;28;20030;-77
2022/01/19 07:54:13;;;;;;;112.75;46.75;;;5.40;99.90;;;;;;5015569;28;20022;-77
2022/01/19 07:56:39;;;;;;;109.50;44.65;;;5.40;99.90;;;;;;5033171;28;20110;-74
2022/01/19 07:59:05;;;;;;;112.07;44.40;;;5.40;99.90;;;;;;5029295;28;20053;-75
2022/01/19 08:01:31;;;;;;;112.47;45.67;;;5.40;99.90;;;;;;5035576;28;20453;-76
2022/01/19 08:04:00;;;;;;;110.80;45.10;;;5.40;99.90;;;;;;5045298;28;20056;-75
2022/01/19 08:06:25;;;;;;;107.25;44.08;;;5.40;99.90;;;;;;5035771;28;20030;-77
2022/01/19 08:08:51;;;;;;;115.13;45.25;;;5.40;99.90;;;;;;5031238;28;20036;-76
2022/01/19 08:11:17;;;;;;;110.28;46.13;;;5.40;99.90;;;;;;5038495;28;20372;-76
2022/01/19 08:13:42;;;;;;;111.45;45.92;;;5.40;99.90;;;;;;5022758;28;20052;-77
2022/01/19 08:16:08;;;;;;;111.50;44.35;;;5.40;99.90;;;;;;5015290;28;20036;-76
2022/01/19 08:18:34;;;;;;;106.35;43.75;;;5.40;99.90;;;;;;5030925;28;20067;-77
2022/01/19 08:20:59;;;;;;;107.30;45.20;;;5.50;99.90;;;;;;5031007;28;20407;-77
2022/01/19 08:23:25;;;;;;;101.47;43.58;;;5.50;99.90;;;;;;5014104;28;20039;-76
2022/01/19 08:25:51;;;;;;;115.43;44.83;;;5.50;99.90;;;;;;5032128;28;20021;-77
2022/01/19 08:28:17;;;;;;;114.18;46.47;;;5.50;99.90;;;;;;5032800;28;20018;-77
2022/01/19 08:30:44;;;;;;;104.63;45.03;;;5.50;99.90;;;;;;5022138;28;20061;-77
2022/01/19 08:33:10;;;;;;;104.75;43.55;;;5.50;99.90;;;;;;5017597;28;20561;-76
2022/01/19 08:35:36;;;;;;;111.63;43.55;;;5.50;99.90;;;;;;5044737;28;21009;-77
2022/01/19 08:38:02;;;;;;;105.78;43.72;;;5.50;99.90;;;;;;5040149;28;20024;-77
2022/01/19 08:40:29;;;;;;;106.30;43.20;;;5.50;99.90;;;;;;5041543;28;20045;-76
2022/01/19 08:42:55;;;;;;;112.50;43.67;;;5.50;99.90;;;;;;5043407;28;20013;-76
2022/01/19 08:45:21;;;;;;;105.60;42.97;;;5.50;99.90;;;;;;5040067;28;20037;-76
2022/01/19 08:47:47;;;;;;;97.38;40.30;;;5.60;99.90;;;;;;5031466;28;20025;-76
2022/01/19 08:50:15;;;;;;;101.60;41.55;;;5.60;99.90;;;;;;5031455;28;20067;-76
2022/01/19 08:52:42;;;;;;;108.80;43.45;;;5.60;99.90;;;;;;5028031;28;20026;-76
2022/01/19 08:55:08;;;;;;;101.28;41.80;;;5.60;99.90;;;;;;5030788;28;20040;-77
2022/01/19 08:57:33;;;;;;;104.68;42.95;;;5.60;99.90;;;;;;5025899;28;20029;-76
2022/01/19 08:59:59;;;;;;;105.63;42.65;;;5.60;99.90;;;;;;5030313;28;20568;-76
2022/01/19 09:02:25;;;;;;;98.40;40.97;;;5.60;99.90;;;;;;5030380;28;20049;-76
2022/01/19 09:04:51;;;;;;;119.70;43.92;;;5.60;99.90;;;;;;5029938;28;20378;-76
2022/01/19 09:07:18;;;;;;;99.47;41.67;;;5.60;99.90;;;;;;5030501;28;20020;-76
2022/01/19 09:09:44;;;;;;;102.05;42.38;;;5.60;99.90;;;;;;5037752;28;20474;-78
2022/01/19 09:12:10;;;;;;;103.95;41.70;;;5.70;99.90;;;;;;5036013;28;20019;-76
2022/01/19 09:14:35;;;;;;;92.88;39.38;;;5.70;99.90;;;;;;5036958;28;20025;-76
2022/01/19 09:17:06;;;;;;;96.97;39.42;;;5.70;99.90;;;;;;5043930;28;20025;-76
2022/01/19 09:19:31;;;;;;;111.55;41.30;;;5.70;99.90;;;;;;5046221;28;20453;-76
2022/01/19 09:21:57;;;;;;;98.93;39.53;;;5.80;99.90;;;;;;5040909;28;20112;-76
2022/01/19 09:24:23;;;;;;;104.15;40.17;;;5.80;99.90;;;;;;5032817;28;20028;-76
2022/01/19 09:26:48;;;;;;;94.00;37.58;;;5.80;99.90;;;;;;5008409;28;20536;-76
2022/01/19 09:29:14;;;;;;;80.00;35.45;;;5.80;99.90;;;;;;5032468;28;20565;-76
2022/01/19 09:31:41;;;;;;;87.63;35.97;;;5.80;99.90;;;;;;5034180;28;20052;-76
2022/01/19 09:34:14;;;;;;;81.90;34.92;;;5.80;99.90;;;;;;5017352;28;20022;-76
2022/01/19 09:36:46;;;;;;;83.78;34.70;;;5.80;99.90;;;;;;5045290;28;20505;-76
2022/01/19 09:39:22;;;;;;;88.25;36.00;;;5.70;99.90;;;;;;5041163;28;20073;-77
2022/01/19 09:41:48;;;;;;;82.43;34.25;;;5.70;99.90;;;;;;5041641;28;20029;-76
2022/01/19 09:44:15;;;;;;;78.03;33.35;;;5.70;99.90;;;;;;5034939;28;20020;-77
2022/01/19 09:46:42;;;;;;;80.22;33.65;;;5.70;99.90;;;;;;5046685;28;20075;-76
2022/01/19 09:49:08;;;;;;;76.93;32.83;;;5.70;99.90;;;;;;5039376;28;20029;-77
2022/01/19 09:51:34;;;;;;;79.15;33.08;;;5.70;99.90;;;;;;5046269;28;20511;-76
2022/01/19 09:54:00;;;;;;;81.97;34.33;;;5.70;99.90;;;;;;5043004;28;20432;-76
2022/01/19 09:56:26;;;;;;;81.88;35.20;;;5.70;99.90;;;;;;5046229;28;20415;-77
2022/01/19 09:58:52;;;;;;;85.72;34.75;;;5.70;99.90;;;;;;5038452;28;20605;-77
2022/01/19 10:01:22;;;;;;;82.35;34.00;;;5.70;99.90;;;;;;5034205;28;20037;-77
2022/01/19 10:03:48;;;;;;;85.03;36.38;;;5.70;99.90;;;;;;5033860;28;20030;-77
2022/01/19 10:06:19;;;;;;;84.93;35.08;;;5.70;99.90;;;;;;5041898;28;20021;-76
2022/01/19 10:08:48;;;;;;;81.57;35.38;;;5.70;99.90;;;;;;5048945;28;20071;-76
2022/01/19 10:16:58;;;;;;;85.65;37.17;;;5.70;99.90;;;;;;5049653;28;20021;-76
2022/01/19 10:17:06;;;;;;;86.15;35.70;;;5.70;99.90;;;;;;5033915;28;20036;-77
2022/01/19 10:19:36;;;;;;;82.45;36.67;;;5.70;99.90;;;;;;5034155;28;20060;-76
2022/01/19 10:22:04;;;;;;;90.28;36.45;;;5.70;99.90;;;;;;5033932;28;20048;-76
2022/01/19 10:24:41;;;;;;;91.35;38.00;;;5.60;99.90;;;;;;5033672;28;20386;-76
2022/01/19 10:27:45;;;;;;;86.47;37.55;;;5.70;99.90;;;;;;5033899;28;20025;-76
2022/01/19 10:30:17;;;;;;;87.40;37.45;;;5.60;99.90;;;;;;4991902;28;20432;-76
2022/01/19 10:33:00;;;;;;;90.22;37.30;;;5.60;99.90;;;;;;4990958;28;20034;-77
2022/01/19 10:35:37;;;;;;;89.35;38.22;;;5.60;99.90;;;;;;4969508;28;20054;-76
2022/01/19 10:38:24;;;;;;;89.22;37.97;;;5.60;99.90;;;;;;4982300;28;20030;-76
2022/01/19 10:40:58;;;;;;;93.28;39.95;;;5.60;99.90;;;;;;4992515;28;20416;-76
2022/01/19 10:43:24;;;;;;;87.07;38.58;;;5.60;99.90;;;;;;5001443;28;20027;-76
2022/01/19 10:45:49;;;;;;;85.95;39.67;;;5.70;99.90;;;;;;4991030;28;20459;-76
2022/01/19 10:48:39;;;;;;;92.03;39.42;;;5.70;99.90;;;;;;4996034;28;20093;-76
2022/01/19 10:51:17;;;;;;;90.90;39.88;;;5.70;99.90;;;;;;4992234;28;20424;-76
2022/01/19 10:53:45;;;;;;;89.95;39.75;;;5.70;99.90;;;;;;4974509;28;20186;-76
2022/01/19 10:56:27;;;;;;;97.05;39.38;;;5.70;99.90;;;;;;4972958;28;20541;-76
2022/01/19 10:59:14;;;;;;;89.53;40.13;;;5.70;99.90;;;;;;4975396;28;20105;-76
2022/01/19 11:01:51;;;;;;;97.03;41.05;;;5.80;99.90;;;;;;5028764;28;20044;-77
2022/01/19 11:04:27;;;;;;;91.68;40.35;;;5.80;99.90;;;;;;5027941;28;20269;-76
2022/01/19 11:07:04;;;;;;;91.00;39.08;;;5.80;99.90;;;;;;5033050;28;20079;-76
2022/01/19 11:09:32;;;;;;;88.13;39.17;;;5.80;99.90;;;;;;5032692;28;20109;-76
2022/01/19 11:12:06;;;;;;;91.30;39.05;;;5.90;99.90;;;;;;5033089;28;20060;-76
2022/01/19 11:14:34;;;;;;;91.47;39.13;;;5.90;99.90;;;;;;5046225;28;20037;-76
2022/01/19 11:17:00;;;;;;;87.43;38.80;;;6.00;99.90;;;;;;5029472;28;20030;-76
2022/01/19 11:19:26;;;;;;;87.82;38.10;;;6.00;99.90;;;;;;5032994;28;20087;-77
2022/01/19 11:21:51;;;;;;;86.00;38.00;;;6.10;99.90;;;;;;5032329;28;20048;-76
2022/01/19 11:24:32;;;;;;;85.82;36.78;;;6.10;99.90;;;;;;5018222;28;20029;-76
2022/01/19 11:26:58;;;;;;;79.53;36.38;;;6.20;99.90;;;;;;5039910;28;20029;-76
2022/01/19 11:29:24;;;;;;;80.22;35.53;;;6.30;99.90;;;;;;5034862;28;20439;-77
2022/01/19 11:31:53;;;;;;;85.07;38.00;;;6.40;99.90;;;;;;5037554;28;20036;-76
2022/01/19 11:34:45;;;;;;;79.05;36.95;;;6.40;99.90;;;;;;5036378;28;20398;-77
2022/01/19 11:37:11;;;;;;;78.75;35.17;;;6.40;99.90;;;;;;5044406;28;20167;-76
2022/01/19 11:39:57;;;;;;;81.03;36.92;;;6.40;99.90;;;;;;5035053;28;20514;-76
2022/01/19 11:42:24;;;;;;;77.80;36.08;;;6.50;99.90;;;;;;5032266;28;20125;-76
2022/01/19 11:44:51;;;;;;;84.75;36.10;;;6.50;99.90;;;;;;5031704;28;20033;-76
2022/01/19 11:47:23;;;;;;;75.53;34.83;;;6.50;99.90;;;;;;5031682;28;20026;-77
2022/01/19 11:50:07;;;;;;;77.40;33.70;;;6.50;99.90;;;;;;5031643;28;20034;-76
2022/01/19 11:52:34;;;;;;;76.20;34.28;;;6.60;99.90;;;;;;5032709;28;20049;-76
2022/01/19 11:55:15;;;;;;;75.05;33.55;;;6.50;99.90;;;;;;5041338;28;20100;-76
2022/01/19 11:57:43;;;;;;;73.75;34.65;;;6.60;99.90;;;;;;5035167;28;20473;-76
2022/01/19 12:00:12;;;;;;;81.65;35.53;;;6.60;99.90;;;;;;5041167;28;20076;-76
2022/01/19 12:02:46;;;;;;;76.32;33.95;;;6.60;99.90;;;;;;5038717;28;20112;-76
2022/01/19 12:05:12;;;;;;;74.25;33.08;;;6.60;99.90;;;;;;5019769;28;20127;-76
2022/01/19 12:07:58;;;;;;;78.05;35.38;;;6.60;99.90;;;;;;5036240;28;20527;-76
2022/01/19 12:10:37;;;;;;;73.05;34.40;;;6.60;99.90;;;;;;5038017;28;20021;-76
2022/01/19 12:13:26;;;;;;;75.38;33.85;;;6.60;99.90;;;;;;5038402;28;20086;-76
2022/01/19 12:16:48;;;;;;;69.82;33.33;;;6.60;99.90;;;;;;5033206;28;20025;-76
2022/01/19 12:19:19;;;;;;;76.55;33.75;;;6.60;99.90;;;;;;5031893;28;20057;-76
2022/01/19 12:21:53;;;;;;;74.05;34.55;;;6.50;99.90;;;;;;5039949;28;20045;-76
2022/01/19 12:24:29;;;;;;;76.10;35.13;;;6.60;99.90;;;;;;5037255;28;20021;-77
2022/01/19 12:27:11;;;;;;;74.32;34.97;;;6.60;99.90;;;;;;5037626;28;20021;-76
2022/01/19 12:29:36;;;;;;;69.40;33.53;;;6.50;99.90;;;;;;5045436;28;20037;-76
2022/01/19 12:32:03;;;;;;;72.65;32.58;;;6.60;99.90;;;;;;5042297;28;20036;-76
2022/01/19 12:34:47;;;;;;;75.45;34.42;;;6.50;99.90;;;;;;5041861;28;20022;-76
2022/01/19 12:37:34;;;;;;;70.53;32.92;;;6.50;99.90;;;;;;5042364;28;20063;-76
2022/01/19 12:40:17;;;;;;;73.78;33.50;;;6.50;99.90;;;;;;5040129;28;20032;-76
2022/01/19 12:42:56;;;;;;;74.93;34.78;;;6.50;99.90;;;;;;5041516;28;20022;-76
2022/01/19 12:45:26;;;;;;;73.47;32.97;;;6.50;99.90;;;;;;5041283;28;20029;-77
2022/01/19 12:47:56;;;;;;;72.97;32.30;;;6.50;99.90;;;;;;5030972;28;20025;-76
2022/01/19 12:50:21;;;;;;;71.50;32.80;;;6.50;99.90;;;;;;5037423;28;20110;-76
2022/01/19 12:52:49;;;;;;;67.40;31.63;;;6.50;99.90;;;;;;5036819;28;20486;-76
2022/01/19 12:55:28;;;;;;;72.30;33.63;;;6.50;99.90;;;;;;5031769;28;20021;-76
2022/01/19 12:57:55;;;;;;;77.05;32.70;;;6.50;99.90;;;;;;5041847;28;20432;-77
2022/01/19 13:00:30;;;;;;;71.68;31.55;;;6.50;99.90;;;;;;5035046;28;20034;-76
2022/01/19 13:02:59;;;;;;;73.03;33.97;;;6.60;99.90;;;;;;5037939;28;20036;-76
2022/01/19 13:05:31;;;;;;;69.57;32.85;;;6.60;99.90;;;;;;5046627;28;20487;-77
2022/01/19 13:08:02;;;;;;;72.45;31.75;;;6.60;99.90;;;;;;5020669;28;20026;-77
2022/01/19 13:10:44;;;;;;;68.75;31.60;;;6.60;99.90;;;;;;5011411;28;20053;-76
2022/01/19 13:13:13;;;;;;;70.15;31.98;;;6.60;99.90;;;;;;5011296;28;20030;-76
2022/01/19 13:15:42;;;;;;;73.78;32.58;;;6.70;99.90;;;;;;5015975;28;20484;-76
2022/01/19 13:18:08;;;;;;;67.40;30.73;;;6.70;99.90;;;;;;5018897;28;20010;-76
2022/01/19 13:20:34;;;;;;;70.25;29.63;;;6.70;99.90;;;;;;5041901;28;20048;-76
2022/01/19 13:23:00;;;;;;;64.10;28.95;;;6.70;99.90;;;;;;5028067;28;20017;-77
2022/01/19 13:25:28;;;;;;;63.63;27.35;;;6.70;99.90;;;;;;5030773;28;20397;-76
2022/01/19 13:27:56;;;;;;;65.03;27.70;;;6.70;99.90;;;;;;5027767;28;20449;-76
2022/01/19 13:30:28;;;;;;;60.30;26.88;;;6.70;99.90;;;;;;5011054;28;20021;-76
2022/01/19 13:32:54;;;;;;;62.28;27.00;;;6.70;99.90;;;;;;5019423;28;20076;-76
2022/01/19 13:35:21;;;;;;;60.60;25.50;;;6.70;99.90;;;;;;5010398;28;20022;-76
2022/01/19 13:37:55;;;;;;;51.85;23.45;;;6.70;99.90;;;;;;5015600;28;20022;-77
2022/01/19 13:40:24;;;;;;;53.40;23.33;;;6.70;99.90;;;;;;5010772;28;20030;-76
2022/01/19 13:42:56;;;;;;;54.28;22.92;;;6.70;99.90;;;;;;5016464;28;20475;-76
2022/01/19 13:50:42;;;;;;;51.45;21.38;;;6.70;99.90;;;;;;5047785;28;20037;-77
2022/01/19 13:53:08;;;;;;;52.97;21.85;;;6.80;99.90;;;;;;5013281;28;20034;-76
2022/01/19 13:55:35;;;;;;;51.33;20.88;;;6.80;99.90;;;;;;5035681;28;20040;-76
2022/01/19 13:58:09;;;;;;;51.08;20.15;;;6.70;99.90;;;;;;5029395;28;20329;-76
2022/01/19 14:00:36;;;;;;;53.28;18.48;;;6.70;99.90;;;;;;5033526;28;20046;-76
2022/01/19 14:03:06;;;;;;;45.35;18.17;;;6.80;99.90;;;;;;5029828;28;20805;-76
2022/01/19 14:05:39;;;;;;;46.00;17.13;;;6.80;99.90;;;;;;5039613;28;20037;-76
2022/01/19 14:08:05;;;;;;;43.58;17.42;;;6.80;99.90;;;;;;5029159;28;20105;-77
2022/01/19 14:10:48;;;;;;;45.85;17.67;;;6.80;99.90;;;;;;5010672;28;20499;-77
2022/01/19 14:13:56;;;;;;;44.47;17.73;;;6.80;99.90;;;;;;5019662;28;20013;-77
2022/01/19 14:16:24;;;;;;;45.78;15.45;;;6.80;99.90;;;;;;5011785;28;20458;-77
2022/01/19 14:19:29;;;;;;;37.83;14.43;;;6.80;99.90;;;;;;5039147;28;20511;-77
2022/01/19 14:22:03;;;;;;;39.47;13.40;;;6.80;99.90;;;;;;4945537;29;20100;-75
2022/01/19 14:24:42;;;;;;;32.38;11.05;;;6.80;99.90;;;;;;4918910;29;20126;-77
2022/01/19 14:27:12;;;;;;;31.90;9.63;;;6.80;99.90;;;;;;4936907;29;20032;-74
2022/01/19 14:29:56;;;;;;;31.40;9.00;;;6.80;99.90;;;;;;4944584;29;20039;-75
2022/01/19 14:32:44;;;;;;;28.73;9.23;;;6.80;99.90;;;;;;4933606;29;20036;-74
2022/01/19 14:35:25;;;;;;;30.67;9.23;;;6.80;99.90;;;;;;4933112;29;20023;-75
2022/01/19 14:38:04;;;;;;;30.30;9.27;;;6.80;99.90;;;;;;4933379;29;20035;-75
2022/01/19 14:40:33;;;;;;;33.35;10.07;;;6.90;99.90;;;;;;4933961;29;20063;-75
2022/01/19 14:42:59;;;;;;;31.33;9.63;;;6.90;99.90;;;;;;4928348;29;20051;-75
2022/01/19 14:45:34;;;;;;;32.30;9.77;;;6.90;99.90;;;;;;4938439;29;20039;-75
2022/01/19 14:48:10;;;;;;;33.55;9.90;;;6.90;99.90;;;;;;4924374;29;20040;-75
2022/01/19 14:50:37;;;;;;;35.55;10.40;;;6.90;99.90;;;;;;4934640;29;20039;-75
2022/01/19 14:53:04;;;;;;;30.20;10.23;;;6.90;99.90;;;;;;4934484;29;20118;-75
2022/01/19 14:55:33;;;;;;;31.90;9.65;;;7.00;99.90;;;;;;4969922;28;20120;-74
2022/01/19 14:58:00;;;;;;;30.83;10.13;;;7.00;99.90;;;;;;5033572;28;20120;-75
2022/01/19 15:00:28;;;;;;;32.67;11.35;;;7.00;99.90;;;;;;5015928;28;20077;-75
2022/01/19 15:03:00;;;;;;;37.15;11.07;;;7.00;99.90;;;;;;5031515;28;20558;-75
2022/01/19 15:05:31;;;;;;;41.53;12.20;;;7.10;99.90;;;;;;5044695;28;20063;-74
2022/01/19 15:07:57;;;;;;;33.50;12.18;;;7.10;99.90;;;;;;5016397;28;20025;-74
2022/01/19 15:10:25;;;;;;;38.47;12.60;;;7.20;99.90;;;;;;5029935;28;20369;-75
2022/01/19 15:12:53;;;;;;;41.05;13.73;;;7.20;99.90;;;;;;5033670;28;20387;-77
2022/01/19 15:15:24;;;;;;;42.05;14.38;;;7.30;99.90;;;;;;5030802;28;20022;-75
2022/01/19 15:17:56;;;;;;;38.08;13.45;;;7.40;99.90;;;;;;5030881;28;20156;-76
2022/01/19 15:20:23;;;;;;;42.65;14.88;;;7.40;99.90;;;;;;5033720;28;20376;-76
2022/01/19 15:22:48;;;;;;;47.92;15.13;;;7.40;99.90;;;;;;5027030;28;20026;-76
2022/01/19 15:25:15;;;;;;;41.58;15.32;;;7.50;99.90;;;;;;5026135;28;20426;-76
2022/01/19 15:27:41;;;;;;;39.15;14.13;;;7.50;99.90;;;;;;5041786;28;20025;-76
2022/01/19 15:30:08;;;;;;;38.78;14.43;;;7.50;99.90;;;;;;5044391;28;20037;-76
2022/01/19 15:32:34;;;;;;;43.00;14.10;;;7.60;99.90;;;;;;5033192;28;20100;-76
2022/01/19 15:35:00;;;;;;;38.95;14.32;;;7.60;99.90;;;;;;5033104;28;20609;-76
2022/01/19 15:37:25;;;;;;;39.55;13.55;;;7.60;99.90;;;;;;5037323;28;20029;-76
2022/01/19 15:39:54;;;;;;;44.70;14.73;;;7.60;99.90;;;;;;5033603;28;20022;-76
2022/01/19 15:42:20;;;;;;;32.30;13.02;;;7.70;99.90;;;;;;5051117;28;20032;-77
2022/01/19 15:44:45;;;;;;;41.88;14.63;;;7.70;99.90;;;;;;5028847;28;20033;-77
2022/01/19 15:47:14;;;;;;;43.33;15.30;;;7.70;99.90;;;;;;5032623;28;20475;-77
2022/01/19 15:49:40;;;;;;;40.90;14.52;;;7.70;99.90;;;;;;5033119;28;20053;-77
2022/01/19 15:52:05;;;;;;;46.30;14.63;;;7.70;99.90;;;;;;5032481;28;20060;-77
2022/01/19 15:54:32;;;;;;;45.38;14.20;;;7.70;99.90;;;;;;5032246;28;20490;-77
2022/01/19 15:56:58;;;;;;;39.53;14.18;;;7.80;99.90;;;;;;5034687;28;20072;-77
2022/01/19 15:59:24;;;;;;;41.22;13.15;;;7.70;99.90;;;;;;5036986;28;20052;-77
2022/01/19 16:01:50;;;;;;;39.90;13.25;;;7.80;99.90;;;;;;5031345;28;20387;-77
2022/01/19 16:04:15;;;;;;;40.80;12.68;;;7.80;99.90;;;;;;5034146;28;20097;-77
2022/01/19 16:06:42;;;;;;;42.35;11.48;;;7.80;99.90;;;;;;5038179;28;20025;-77
2022/01/19 16:09:14;;;;;;;40.65;11.32;;;7.80;99.90;;;;;;5039747;28;20025;-77
2022/01/19 16:11:40;;;;;;;40.33;10.25;;;7.80;99.90;;;;;;5049521;28;20025;-77
2022/01/19 16:14:06;;;;;;;33.92;9.57;;;7.80;99.90;;;;;;5051306;28;20013;-77
2022/01/19 16:16:32;;;;;;;36.85;10.73;;;7.80;99.90;;;;;;5032805;28;20033;-77
2022/01/19 16:18:58;;;;;;;36.17;9.93;;;7.80;99.90;;;;;;5050468;28;20044;-76
2022/01/19 16:21:24;;;;;;;31.50;8.30;;;7.80;99.90;;;;;;5050306;28;20405;-77
2022/01/19 16:26:34;;;;;;;32.75;8.05;;;7.80;99.90;;;;;;5051462;28;20079;-76
2022/01/19 16:29:00;;;;;;;32.08;8.15;;;7.80;99.90;;;;;;5051534;28;20379;-77
2022/01/19 16:31:25;;;;;;;33.17;6.93;;;7.80;99.90;;;;;;5038792;28;20033;-76
2022/01/19 16:33:53;;;;;;;30.10;7.45;;;7.90;99.90;;;;;;5031376;28;20022;-77
2022/01/19 16:36:19;;;;;;;34.35;6.75;;;7.80;99.90;;;;;;5034599;28;20147;-76
2022/01/19 16:38:45;;;;;;;39.53;6.80;;;7.80;99.90;;;;;;5035856;28;20021;-76
2022/01/19 16:41:12;;;;;;;33.15;6.90;;;7.80;99.90;;;;;;5043700;28;20035;-76
2022/01/19 16:43:41;;;;;;;31.38;5.97;;;7.80;99.90;;;;;;5043334;28;20502;-76
2022/01/19 16:46:07;;;;;;;37.00;5.78;;;7.80;99.90;;;;;;5051156;28;20036;-76
2022/01/19 16:48:34;;;;;;;36.67;5.68;;;7.90;99.90;;;;;;5049336;28;20486;-77
2022/01/19 16:51:00;;;;;;;29.30;4.90;;;7.80;99.90;;;;;;5049276;28;20060;-77
2022/01/19 16:53:32;;;;;;;26.65;5.07;;;7.80;99.90;;;;;;5050727;28;20024;-77
2022/01/19 16:55:59;;;;;;;27.00;4.85;;;7.80;99.90;;;;;;5034053;28;20499;-77
2022/01/19 16:58:30;;;;;;;25.80;5.38;;;7.80;99.90;;;;;;5052008;28;20028;-77
2022/01/19 17:00:58;;;;;;;29.08;5.10;;;7.70;99.90;;;;;;5038574;28;20030;-76
2022/01/19 17:03:25;;;;;;;31.33;4.97;;;7.70;99.90;;;;;;5031593;28;20104;-77